createdAt,value
2018-04-16T00:01:34.975Z,100600.84
2018-04-16T00:04:03.354Z,100593.17
2018-04-16T00:06:31.824Z,100588.09
2018-04-16T00:09:00.245Z,100594.53
2018-04-16T00:11:28.645Z,100597.11
2018-04-16T00:13:56.981Z,100586.92
2018-04-16T00:16:25.358Z,100589.17
2018-04-16T00:18:54.614Z,100585.27
2018-04-16T00:21:23.776Z,100583.11
2018-04-16T00:23:52.156Z,100580.97
2018-04-16T00:26:20.516Z,100570.19
2018-04-16T00:28:48.926Z,100579.81
2018-04-16T00:31:17.319Z,100578.02
2018-04-16T00:33:51.078Z,100569.34
2018-04-16T00:36:19.803Z,100565.09
2018-04-16T00:38:53.635Z,100564.65
2018-04-16T00:41:27.660Z,100558.63
2018-04-16T00:44:02.151Z,100555.18
2018-04-16T00:46:35.979Z,100553.03
2018-04-16T00:49:09.839Z,100550.09
2018-04-16T00:51:43.861Z,100559.58
2018-04-16T00:54:23.579Z,100563.95
2018-04-16T00:56:58.155Z,100561.81
2018-04-16T00:59:32.401Z,100562.69
2018-04-16T01:02:07.891Z,100572.66
2018-04-16T01:04:41.702Z,100571.43
2018-04-16T01:07:15.572Z,100580.55
2018-04-16T01:09:49.440Z,100582.25
2018-04-16T01:12:23.771Z,100583.98
2018-04-16T01:14:58.579Z,100581.35
2018-04-16T01:20:42.077Z,100576.23
2018-04-16T01:23:15.839Z,100574.08
2018-04-16T01:25:49.839Z,100577.97
2018-04-16T01:28:24.460Z,100573.66
2018-04-16T01:30:58.360Z,100586.52
2018-04-16T01:33:32.213Z,100592.98
2018-04-16T01:36:07.004Z,100589.23
2018-04-16T01:41:45.639Z,100596.85
2018-04-16T01:44:19.611Z,100593.77
2018-04-16T01:46:53.568Z,100577.23
2018-04-16T01:49:27.421Z,100578.58
2018-04-16T01:52:02.107Z,100583.30
2018-04-16T01:54:36.142Z,100581.11
2018-04-16T01:57:10.095Z,100577.62
2018-04-16T01:59:43.925Z,100582.41
2018-04-16T02:02:17.874Z,100567.81
2018-04-16T02:04:53.259Z,100566.52
2018-04-16T02:07:27.061Z,100576.00
2018-04-16T02:10:00.858Z,100574.70
2018-04-16T02:12:34.606Z,100571.63
2018-04-16T02:18:17.380Z,100555.81
2018-04-16T02:20:52.047Z,100561.43
2018-04-16T02:23:25.816Z,100567.87
2018-04-16T02:25:59.604Z,100565.20
2018-04-16T02:28:34.432Z,100576.36
2018-04-16T02:31:09.152Z,100576.42
2018-04-16T02:33:43.071Z,100579.45
2018-04-16T02:36:16.894Z,100584.26
2018-04-16T02:38:51.482Z,100583.39
2018-04-16T02:41:25.635Z,100588.67
2018-04-16T02:43:59.607Z,100596.45
2018-04-16T02:46:33.493Z,100597.80
2018-04-16T02:49:07.319Z,100596.03
2018-04-16T02:51:42.033Z,100589.70
2018-04-16T02:54:16.128Z,100586.14
2018-04-16T02:56:50.091Z,100575.15
2018-04-16T02:59:24.730Z,100567.28
2018-04-16T03:01:58.631Z,100566.84
2018-04-16T03:04:33.257Z,100562.05
2018-04-16T03:07:07.953Z,100564.08
2018-04-16T03:09:41.779Z,100565.73
2018-04-16T03:15:21.112Z,100580.20
2018-04-16T03:17:55.020Z,100581.94
2018-04-16T03:20:28.933Z,100583.30
2018-04-16T03:23:02.735Z,100592.41
2018-04-16T03:25:36.639Z,100593.26
2018-04-16T03:28:10.563Z,100593.22
2018-04-16T03:30:44.555Z,100593.20
2018-04-16T03:33:18.451Z,100586.43
2018-04-16T03:39:01.234Z,100593.05
2018-04-16T03:41:35.937Z,100596.05
2018-04-16T03:44:10.713Z,100603.31
2018-04-16T03:46:44.732Z,100608.04
2018-04-16T03:49:18.594Z,100601.88
2018-04-16T03:51:52.523Z,100614.38
2018-04-16T03:54:21.645Z,100605.76
2018-04-16T03:56:49.995Z,100607.36
2018-04-16T03:59:19.118Z,100613.30
2018-04-16T04:01:47.561Z,100608.58
2018-04-16T04:04:16.764Z,100609.14
2018-04-16T04:06:45.863Z,100614.36
2018-04-16T04:09:16.018Z,100610.49
2018-04-16T04:11:44.391Z,100611.79
2018-04-16T04:14:12.743Z,100625.94
2018-04-16T04:16:41.918Z,100622.55
2018-04-16T04:19:10.360Z,100623.23
2018-04-16T04:21:38.763Z,100624.58
2018-04-16T04:24:24.840Z,100629.68
2018-04-16T04:27:11.751Z,100625.73
2018-04-16T04:29:57.814Z,100636.95
2018-04-16T04:32:26.947Z,100632.33
2018-04-16T04:34:55.371Z,100634.48
2018-04-16T04:37:23.834Z,100639.16
2018-04-16T04:39:52.206Z,100645.12
2018-04-16T04:42:21.178Z,100645.23
2018-04-16T04:44:49.586Z,100647.70
2018-04-16T04:47:17.938Z,100645.01
2018-04-16T04:49:47.049Z,100648.44
2018-04-16T04:52:16.285Z,100652.67
2018-04-16T04:54:44.661Z,100657.28
2018-04-16T04:57:13.795Z,100649.61
2018-04-16T04:59:42.796Z,100644.45
2018-04-16T05:02:11.227Z,100654.27
2018-04-16T05:04:40.369Z,100648.19
2018-04-16T05:07:08.724Z,100652.95
2018-04-16T05:09:37.157Z,100646.17
2018-04-16T05:12:05.528Z,100638.98
2018-04-16T05:14:33.881Z,100643.65
2018-04-16T05:17:02.473Z,100635.03
2018-04-16T05:19:30.855Z,100637.55
2018-04-16T05:21:59.286Z,100637.55
2018-04-16T05:24:28.763Z,100643.52
2018-04-16T05:26:58.572Z,100643.95
2018-04-16T05:29:29.344Z,100648.20
2018-04-16T05:31:57.826Z,100660.25
2018-04-16T05:34:26.965Z,100661.04
2018-04-16T05:36:56.235Z,100666.20
2018-04-16T05:39:25.837Z,100669.17
2018-04-16T05:41:54.295Z,100672.61
2018-04-16T05:44:22.738Z,100673.03
2018-04-16T05:46:51.701Z,100675.14
2018-04-16T05:49:20.100Z,100673.33
2018-04-16T05:51:48.618Z,100670.23
2018-04-16T05:54:18.938Z,100675.34
2018-04-16T05:56:48.141Z,100681.73
2018-04-16T05:59:17.931Z,100682.91
2018-04-16T06:01:46.772Z,100681.09
2018-04-16T06:04:15.175Z,100680.66
2018-04-16T06:06:43.586Z,100685.84
2018-04-16T06:09:11.997Z,100687.41
2018-04-16T06:11:41.118Z,100689.00
2018-04-16T06:14:10.153Z,100681.62
2018-04-16T06:16:38.528Z,100686.42
2018-04-16T06:19:06.899Z,100695.09
2018-04-16T06:21:35.278Z,100690.72
2018-04-16T06:24:03.640Z,100694.95
2018-04-16T06:26:32.768Z,100706.23
2018-04-16T06:29:01.140Z,100713.56
2018-04-16T06:31:29.505Z,100717.88
2018-04-16T06:33:57.955Z,100728.73
2018-04-16T06:36:28.661Z,100733.97
2018-04-16T06:38:57.086Z,100734.45
2018-04-16T06:41:25.562Z,100730.52
2018-04-16T06:43:53.919Z,100728.72
2018-04-16T06:46:23.076Z,100735.44
2018-04-16T06:48:51.452Z,100737.52
2018-04-16T06:51:19.839Z,100738.66
2018-04-16T06:53:48.285Z,100741.67
2018-04-16T06:56:16.670Z,100744.25
2018-04-16T06:58:45.943Z,100742.47
2018-04-16T07:01:14.680Z,100749.75
2018-04-16T07:03:43.790Z,100755.33
2018-04-16T07:06:12.262Z,100757.00
2018-04-16T07:08:40.760Z,100751.73
2018-04-16T07:11:09.880Z,100758.08
2018-04-16T07:13:38.367Z,100752.73
2018-04-16T07:16:06.714Z,100760.00
2018-04-16T07:18:35.871Z,100758.16
2018-04-16T07:21:04.374Z,100758.11
2018-04-16T07:23:32.744Z,100755.25
2018-04-16T07:26:02.029Z,100757.28
2018-04-16T07:28:30.389Z,100759.79
2018-04-16T07:30:58.991Z,100755.75
2018-04-16T07:33:28.149Z,100756.88
2018-04-16T07:35:57.363Z,100761.07
2018-04-16T07:38:25.742Z,100769.55
2018-04-16T07:40:54.431Z,100763.08
2018-04-16T07:43:22.983Z,100762.55
2018-04-16T07:45:52.153Z,100768.37
2018-04-16T07:48:20.577Z,100773.02
2018-04-16T07:50:50.237Z,100769.02
2018-04-16T07:53:18.592Z,100776.17
2018-04-16T07:55:46.956Z,100773.50
2018-04-16T07:58:15.461Z,100779.86
2018-04-16T08:00:43.799Z,100784.03
2018-04-16T08:03:12.992Z,100786.44
2018-04-16T08:05:41.393Z,100786.70
2018-04-16T08:08:09.765Z,100786.97
2018-04-16T08:10:38.124Z,100791.11
2018-04-16T08:13:07.294Z,100794.13
2018-04-16T08:15:35.724Z,100795.45
2018-04-16T08:18:04.166Z,100798.82
2018-04-16T08:20:32.499Z,100804.33
2018-04-16T08:23:01.635Z,100810.81
2018-04-16T08:25:30.040Z,100800.84
2018-04-16T08:27:59.320Z,100800.34
2018-04-16T08:30:27.686Z,100799.56
2018-04-16T08:32:56.041Z,100796.45
2018-04-16T08:35:24.401Z,100801.03
2018-04-16T08:37:52.771Z,100809.41
2018-04-16T08:40:21.149Z,100794.92
2018-04-16T08:42:49.479Z,100797.73
2018-04-16T08:45:17.853Z,100794.45
2018-04-16T08:47:46.314Z,100800.50
2018-04-16T08:50:14.756Z,100801.97
2018-04-16T08:52:43.177Z,100801.07
2018-04-16T08:55:11.593Z,100796.31
2018-04-16T08:57:39.988Z,100794.92
2018-04-16T09:00:09.131Z,100800.23
2018-04-16T09:02:37.504Z,100796.66
2018-04-16T09:05:05.991Z,100798.55
2018-04-16T09:07:34.473Z,100800.42
2018-04-16T09:10:02.831Z,100799.30
2018-04-16T09:12:31.296Z,100799.55
2018-04-16T09:15:00.365Z,100797.61
2018-04-16T09:17:29.563Z,100796.63
2018-04-16T09:19:58.007Z,100794.79
2018-04-16T09:22:26.360Z,100797.28
2018-04-16T09:24:55.580Z,100803.05
2018-04-16T09:27:23.999Z,100803.05
2018-04-16T09:29:53.145Z,100803.72
2018-04-16T09:32:21.671Z,100798.89
2018-04-16T09:34:50.080Z,100804.12
2018-04-16T09:37:19.240Z,100813.22
2018-04-16T09:39:47.770Z,100809.00
2018-04-16T09:42:16.203Z,100803.56
2018-04-16T09:44:44.595Z,100801.19
2018-04-16T09:47:12.995Z,100807.20
2018-04-16T09:49:42.149Z,100803.34
2018-04-16T09:52:10.547Z,100801.06
2018-04-16T09:54:38.912Z,100799.27
2018-04-16T09:57:07.265Z,100802.41
2018-04-16T09:59:35.628Z,100800.34
2018-04-16T10:02:09.551Z,100805.39
2018-04-16T10:04:37.922Z,100807.05
2018-04-16T10:07:06.298Z,100804.41
2018-04-16T10:09:34.674Z,100804.77
2018-04-16T10:12:03.082Z,100811.59
2018-04-16T10:14:31.473Z,100803.65
2018-04-16T10:16:59.918Z,100804.36
2018-04-16T10:19:28.251Z,100791.08
2018-04-16T10:21:56.683Z,100793.41
2018-04-16T10:24:25.037Z,100790.12
2018-04-16T10:26:55.196Z,100794.84
2018-04-16T10:29:23.590Z,100802.53
2018-04-16T10:31:51.970Z,100798.93
2018-04-16T10:34:20.378Z,100799.77
2018-04-16T10:36:50.333Z,100794.66
2018-04-16T10:39:19.506Z,100795.16
2018-04-16T10:41:48.712Z,100800.52
2018-04-16T10:44:17.118Z,100798.91
2018-04-16T10:46:45.491Z,100798.92
2018-04-16T10:49:13.879Z,100800.23
2018-04-16T10:51:42.243Z,100795.14
2018-04-16T10:54:10.662Z,100798.34
2018-04-16T10:56:39.114Z,100807.97
2018-04-16T10:59:07.821Z,100810.98
2018-04-16T11:01:36.330Z,100811.31
2018-04-16T11:04:05.551Z,100810.84
2018-04-16T11:06:34.153Z,100813.49
2018-04-16T11:09:02.516Z,100807.83
2018-04-16T11:11:31.713Z,100812.51
2018-04-16T11:14:00.087Z,100812.95
2018-04-16T11:16:29.221Z,100811.42
2018-04-16T11:18:57.560Z,100815.39
2018-04-16T11:21:26.793Z,100818.48
2018-04-16T11:23:55.158Z,100812.21
2018-04-16T11:26:23.560Z,100812.39
2018-04-16T11:28:51.933Z,100812.72
2018-04-16T11:31:20.276Z,100812.20
2018-04-16T11:33:49.432Z,100815.20
2018-04-16T11:36:17.843Z,100818.20
2018-04-16T11:38:46.950Z,100822.70
2018-04-16T11:41:16.088Z,100820.72
2018-04-16T11:43:44.452Z,100818.39
2018-04-16T11:46:12.865Z,100825.57
2018-04-16T11:48:41.247Z,100828.36
2018-04-16T11:51:09.641Z,100828.47
2018-04-16T11:53:39.671Z,100828.11
2018-04-16T11:56:08.799Z,100823.87
2018-04-16T11:58:37.158Z,100828.81
2018-04-16T12:01:05.538Z,100827.81
2018-04-16T12:03:33.905Z,100830.80
2018-04-16T12:06:03.054Z,100828.77
2018-04-16T12:08:31.409Z,100831.16
2018-04-16T12:10:59.753Z,100826.20
2018-04-16T12:13:28.924Z,100827.10
2018-04-16T12:15:57.314Z,100829.58
2018-04-16T12:18:27.282Z,100827.69
2018-04-16T12:20:55.668Z,100824.04
2018-04-16T12:23:29.500Z,100828.94
2018-04-16T12:25:57.974Z,100834.19
2018-04-16T12:28:39.330Z,100836.41
2018-04-16T12:31:13.774Z,100833.10
2018-04-16T12:33:48.808Z,100824.01
2018-04-16T12:36:17.284Z,100833.28
2018-04-16T12:38:51.885Z,100836.35
2018-04-16T12:41:20.249Z,100839.44
2018-04-16T12:43:54.614Z,100837.66
2018-04-16T12:46:28.870Z,100840.31
2018-04-16T12:49:05.592Z,100836.34
2018-04-16T12:51:34.088Z,100830.50
2018-04-16T12:54:02.672Z,100841.30
2018-04-16T12:56:36.823Z,100836.34
2018-04-16T12:59:06.043Z,100841.91
2018-04-16T13:01:40.316Z,100845.12
2018-04-16T13:04:21.657Z,100846.66
2018-04-16T13:06:56.002Z,100848.86
2018-04-16T13:09:24.358Z,100853.63
2018-04-16T13:11:58.793Z,100859.56
2018-04-16T13:14:32.989Z,100865.70
2018-04-16T13:17:02.132Z,100867.63
2018-04-16T13:19:30.553Z,100868.54
2018-04-16T13:22:10.236Z,100862.79
2018-04-16T13:24:44.404Z,100867.98
2018-04-16T13:27:24.253Z,100874.86
2018-04-16T13:29:52.632Z,100871.69
2018-04-16T13:32:21.341Z,100882.60
2018-04-16T13:34:56.521Z,100879.40
2018-04-16T13:37:30.657Z,100879.97
2018-04-16T13:39:59.813Z,100883.88
2018-04-16T13:42:28.975Z,100880.98
2018-04-16T13:44:57.379Z,100879.23
2018-04-16T13:47:26.653Z,100882.06
2018-04-16T13:50:00.966Z,100882.53
2018-04-16T13:52:29.341Z,100887.33
2018-04-16T13:55:03.511Z,100888.61
2018-04-16T13:57:37.746Z,100885.90
2018-04-16T14:00:18.259Z,100899.14
2018-04-16T14:02:46.750Z,100897.61
2018-04-16T14:05:15.153Z,100905.63
2018-04-16T14:07:49.348Z,100903.54
2018-04-16T14:10:23.533Z,100912.27
2018-04-16T14:12:51.922Z,100915.30
2018-04-16T14:15:20.294Z,100915.81
2018-04-16T14:17:48.645Z,100912.11
2018-04-16T14:20:17.814Z,100921.84
2018-04-16T14:22:52.043Z,100919.81
2018-04-16T14:25:26.331Z,100932.26
2018-04-16T14:27:54.853Z,100922.20
2018-04-16T14:30:29.777Z,100922.83
2018-04-16T14:32:58.153Z,100922.50
2018-04-16T14:35:32.527Z,100920.36
2018-04-16T14:38:07.291Z,100919.61
2018-04-16T14:40:42.255Z,100923.05
2018-04-16T14:43:11.431Z,100927.34
2018-04-16T14:45:39.947Z,100927.70
2018-04-16T14:48:08.341Z,100925.27
2018-04-16T14:54:14.558Z,100922.60
2018-04-16T14:56:43.017Z,100925.45
2018-04-16T14:59:11.342Z,100930.34
2018-04-16T15:01:40.497Z,100930.36
2018-04-16T15:04:14.422Z,100936.91
2018-04-16T15:06:48.758Z,100926.74
2018-04-16T15:09:17.194Z,100931.36
2018-04-16T15:11:51.472Z,100931.05
2018-04-16T15:14:27.582Z,100933.20
2018-04-16T15:16:55.977Z,100933.95
2018-04-16T15:19:24.330Z,100933.25
2018-04-16T15:21:52.813Z,100940.49
2018-04-16T15:24:21.214Z,100934.38
2018-04-16T15:26:49.580Z,100936.17
2018-04-16T15:29:17.922Z,100929.48
2018-04-16T15:31:47.073Z,100933.35
2018-04-16T15:34:15.405Z,100933.23
2018-04-16T15:36:43.787Z,100942.80
2018-04-16T15:39:12.233Z,100940.62
2018-04-16T15:41:42.234Z,100951.74
2018-04-16T15:44:10.597Z,100932.14
2018-04-16T15:46:39.002Z,100936.30
2018-04-16T15:49:07.745Z,100940.17
2018-04-16T15:51:36.209Z,100950.83
2018-04-16T15:54:04.784Z,100950.49
2018-04-16T15:56:35.162Z,100949.33
2018-04-16T15:59:03.989Z,100948.41
2018-04-16T16:01:34.457Z,100951.39
2018-04-16T16:04:03.628Z,100949.95
2018-04-16T16:06:32.402Z,100955.20
2018-04-16T16:09:01.531Z,100957.43
2018-04-16T16:11:30.072Z,100947.16
2018-04-16T16:13:58.511Z,100954.70
2018-04-16T16:16:26.972Z,100947.77
2018-04-16T16:18:55.328Z,100951.69
2018-04-16T16:21:23.712Z,100956.27
2018-04-16T16:23:52.079Z,100959.02
2018-04-16T16:26:20.532Z,100955.02
2018-04-16T16:28:48.898Z,100957.75
2018-04-16T16:31:17.723Z,100963.55
2018-04-16T16:33:46.871Z,100970.50
2018-04-16T16:36:15.307Z,100971.19
2018-04-16T16:38:43.751Z,100975.19
2018-04-16T16:41:12.068Z,100975.41
2018-04-16T16:43:40.466Z,100982.60
2018-04-16T16:46:08.797Z,100989.09
2018-04-16T16:48:37.277Z,100993.44
2018-04-16T16:51:05.698Z,101001.47
2018-04-16T16:53:34.173Z,101004.76
2018-04-16T16:56:04.369Z,101006.86
2018-04-16T16:58:34.265Z,101016.13
2018-04-16T17:01:02.690Z,101013.52
2018-04-16T17:03:31.083Z,101022.76
2018-04-16T17:05:59.453Z,101018.53
2018-04-16T17:08:28.662Z,101019.09
2018-04-16T17:10:57.130Z,101024.60
2018-04-16T17:13:25.549Z,101031.88
2018-04-16T17:15:53.933Z,101036.25
2018-04-16T17:18:22.286Z,101029.56
2018-04-16T17:20:50.701Z,101039.53
2018-04-16T17:23:19.834Z,101037.91
2018-04-16T17:25:48.339Z,101044.97
2018-04-16T17:28:16.762Z,101044.03
2018-04-16T17:30:45.376Z,101051.00
2018-04-16T17:33:13.791Z,101054.22
2018-04-16T17:35:42.191Z,101060.80
2018-04-16T17:38:10.637Z,101059.43
2018-04-16T17:40:39.105Z,101057.27
2018-04-16T17:43:07.602Z,101060.34
2018-04-16T17:45:35.968Z,101061.84
2018-04-16T17:48:04.345Z,101070.02
2018-04-16T17:50:32.703Z,101071.92
2018-04-16T17:53:01.128Z,101076.00
2018-04-16T17:55:29.465Z,101072.77
2018-04-16T17:57:58.584Z,101078.59
2018-04-16T18:00:27.037Z,101085.39
2018-04-16T18:02:56.234Z,101091.19
2018-04-16T18:05:25.698Z,101111.69
2018-04-16T18:07:54.261Z,101114.86
2018-04-16T18:10:22.629Z,101123.73
2018-04-16T18:12:51.004Z,101127.63
2018-04-16T18:15:20.304Z,101131.22
2018-04-16T18:17:48.677Z,101140.44
2018-04-16T18:20:17.079Z,101143.67
2018-04-16T18:22:45.475Z,101146.91
2018-04-16T18:25:13.850Z,101146.55
2018-04-16T18:27:42.504Z,101156.23
2018-04-16T18:30:10.908Z,101160.45
2018-04-16T18:32:39.913Z,101166.58
2018-04-16T18:35:08.272Z,101171.14
2018-04-16T18:37:36.662Z,101182.53
2018-04-16T18:40:05.062Z,101181.75
2018-04-16T18:42:33.435Z,101189.58
2018-04-16T18:45:01.836Z,101190.52
2018-04-16T18:47:31.017Z,101199.63
2018-04-16T18:50:01.030Z,101212.27
2018-04-16T18:52:29.485Z,101215.88
2018-04-16T18:54:57.901Z,101219.44
2018-04-16T18:57:26.376Z,101216.91
2018-04-16T18:59:55.180Z,101220.88
2018-04-16T19:02:25.321Z,101222.71
2018-04-16T19:04:55.331Z,101228.36
2018-04-16T19:07:24.529Z,101229.67
2018-04-16T19:09:53.042Z,101243.97
2018-04-16T19:12:21.471Z,101243.55
2018-04-16T19:14:50.152Z,101249.25
2018-04-16T19:17:18.535Z,101260.45
2018-04-16T19:19:48.674Z,101260.54
2018-04-16T19:22:17.852Z,101268.52
2018-04-16T19:27:15.141Z,101286.09
2018-04-16T19:29:44.837Z,101290.06
2018-04-16T19:32:18.352Z,101286.33
2018-04-16T19:34:52.394Z,101291.20
2018-04-16T19:37:20.743Z,101292.19
2018-04-16T19:39:49.906Z,101292.66
2018-04-16T19:42:23.887Z,101293.17
2018-04-16T19:44:52.325Z,101292.44
2018-04-16T19:47:21.465Z,101301.14
2018-04-16T19:50:04.771Z,101308.17
2018-04-16T19:52:33.204Z,101312.05
2018-04-16T19:55:01.566Z,101318.19
2018-04-16T19:57:35.656Z,101329.17
2018-04-16T20:00:04.155Z,101331.84
2018-04-16T20:02:38.053Z,101340.50
2018-04-16T20:05:07.307Z,101336.22
2018-04-16T20:07:36.562Z,101339.28
2018-04-16T20:10:05.772Z,101340.64
2018-04-16T20:12:34.175Z,101344.19
2018-04-16T20:15:02.630Z,101356.42
2018-04-16T20:17:31.197Z,101358.67
2018-04-16T20:19:59.671Z,101370.85
2018-04-16T20:22:28.029Z,101368.31
2018-04-16T20:24:56.381Z,101370.48
2018-04-16T20:27:25.651Z,101377.12
2018-04-16T20:29:54.929Z,101379.83
2018-04-16T20:32:23.406Z,101378.23
2018-04-16T20:34:51.783Z,101386.68
2018-04-16T20:37:20.157Z,101387.55
2018-04-16T20:39:49.355Z,101390.53
2018-04-16T20:42:17.791Z,101395.70
2018-04-16T20:44:46.121Z,101399.61
2018-04-16T20:47:14.492Z,101407.88
2018-04-16T20:49:42.893Z,101404.41
2018-04-16T20:52:11.271Z,101407.02
2018-04-16T20:54:39.602Z,101410.97
2018-04-16T20:57:08.735Z,101412.27
2018-04-16T20:59:37.661Z,101415.34
2018-04-16T21:02:06.816Z,101417.61
2018-04-16T21:04:35.186Z,101421.48
2018-04-16T21:07:03.665Z,101420.63
2018-04-16T21:09:32.407Z,101421.53
2018-04-16T21:12:00.813Z,101432.83
2018-04-16T21:14:30.035Z,101438.89
2018-04-16T21:16:59.155Z,101449.36
2018-04-16T21:19:27.622Z,101445.09
2018-04-16T21:21:57.194Z,101454.61
2018-04-16T21:24:26.294Z,101461.09
2018-04-16T21:26:55.423Z,101466.76
2018-04-16T21:29:23.782Z,101464.27
2018-04-16T21:31:52.145Z,101470.40
2018-04-16T21:34:21.280Z,101474.30
2018-04-16T21:36:49.651Z,101477.28
2018-04-16T21:39:18.013Z,101478.19
2018-04-16T21:41:46.410Z,101485.53
2018-04-16T21:44:21.397Z,101487.60
2018-04-16T21:46:51.478Z,101487.64
2018-04-16T21:49:19.857Z,101481.59
2018-04-16T21:51:48.329Z,101492.49
2018-04-16T21:54:17.345Z,101492.45
2018-04-16T21:56:45.717Z,101498.63
2018-04-16T21:59:14.057Z,101495.56
2018-04-16T22:01:43.529Z,101494.27
2018-04-16T22:04:12.616Z,101498.20
2018-04-16T22:06:40.966Z,101501.66
2018-04-16T22:09:09.320Z,101510.34
2018-04-16T22:11:37.667Z,101514.19
2018-04-16T22:14:06.792Z,101518.16
2018-04-16T22:16:35.181Z,101521.53
2018-04-16T22:19:03.518Z,101525.37
2018-04-16T22:21:32.640Z,101526.24
2018-04-16T22:24:01.013Z,101524.04
2018-04-16T22:26:29.354Z,101521.95
2018-04-16T22:28:57.857Z,101524.72
2018-04-16T22:31:27.009Z,101527.75
2018-04-16T22:33:55.371Z,101524.84
2018-04-16T22:36:23.757Z,101532.73
2018-04-16T22:38:53.181Z,101533.59
2018-04-16T22:41:21.526Z,101540.14
2018-04-16T22:43:49.900Z,101541.93
2018-04-16T22:46:18.278Z,101550.13
2018-04-16T22:48:46.659Z,101553.16
2018-04-16T22:51:15.038Z,101560.03
2018-04-16T22:53:43.432Z,101566.57
2018-04-16T22:56:11.811Z,101574.71
2018-04-16T22:58:40.168Z,101564.81
2018-04-16T23:01:08.485Z,101569.06
2018-04-16T23:03:36.857Z,101568.63
2018-04-16T23:06:05.201Z,101565.21
2018-04-16T23:08:33.570Z,101572.98
2018-04-16T23:11:02.190Z,101577.77
2018-04-16T23:13:30.830Z,101579.55
2018-04-16T23:15:59.959Z,101574.34
2018-04-16T23:18:28.349Z,101573.08
2018-04-16T23:20:56.865Z,101576.96
2018-04-16T23:23:25.271Z,101586.08
2018-04-16T23:25:54.380Z,101591.70
2018-04-16T23:28:22.744Z,101589.97
2018-04-16T23:30:51.940Z,101590.86
2018-04-16T23:33:21.072Z,101593.94
2018-04-16T23:35:49.532Z,101595.66
2018-04-16T23:38:17.901Z,101594.41
2018-04-16T23:40:47.079Z,101598.73
2018-04-16T23:43:15.463Z,101597.46
2018-04-16T23:45:44.617Z,101601.80
2018-04-16T23:48:13.733Z,101607.00
2018-04-16T23:50:42.074Z,101611.77
2018-04-16T23:53:10.452Z,101619.10
2018-04-16T23:55:38.809Z,101619.08
2018-04-16T23:58:07.211Z,101621.23
